createdAt,value
2022-11-18T00:03:08.824Z,0.70
2022-11-18T00:06:33.778Z,0.70
2022-11-18T00:09:57.363Z,0.60
2022-11-18T00:13:39.568Z,0.53
2022-11-18T00:17:06.078Z,0.67
2022-11-18T00:20:29.652Z,0.90
2022-11-18T00:23:54.529Z,0.50
2022-11-18T00:27:18.113Z,0.50
2022-11-18T00:30:41.758Z,0.70
2022-11-18T00:34:06.186Z,0.60
2022-11-18T00:37:29.728Z,0.60
2022-11-18T00:41:02.555Z,0.60
2022-11-18T00:44:25.282Z,0.53
2022-11-18T00:47:48.797Z,0.60
2022-11-18T00:51:16.508Z,0.60
2022-11-18T00:54:40.006Z,0.60
2022-11-18T00:58:04.806Z,0.50
2022-11-18T01:01:28.477Z,0.60
2022-11-18T01:04:52.149Z,0.60
2022-11-18T01:08:16.305Z,0.60
2022-11-18T01:11:57.379Z,0.50
2022-11-18T01:15:22.207Z,0.50
2022-11-18T01:18:45.722Z,0.60
2022-11-18T01:22:09.232Z,0.60
2022-11-18T01:25:32.982Z,0.60
2022-11-18T01:28:58.389Z,0.60
2022-11-18T01:32:24.969Z,0.70
2022-11-18T01:35:48.981Z,0.50
2022-11-18T01:39:12.704Z,0.60
2022-11-18T01:42:37.175Z,0.67
2022-11-18T01:46:01.007Z,0.50
2022-11-18T01:49:26.233Z,0.60
2022-11-18T01:52:52.200Z,0.60
2022-11-18T01:56:21.331Z,0.60
2022-11-18T01:59:49.661Z,0.60
2022-11-18T02:03:16.233Z,0.60
2022-11-18T02:06:42.135Z,0.60
2022-11-18T02:10:11.067Z,0.57
2022-11-18T02:13:34.550Z,0.50
2022-11-18T02:17:14.902Z,0.60
2022-11-18T02:20:43.382Z,0.60
2022-11-18T02:24:42.802Z,0.57
2022-11-18T02:28:37.747Z,0.50
2022-11-18T02:32:11.024Z,0.60
2022-11-18T02:35:42.668Z,0.50
2022-11-18T02:39:14.153Z,0.50
2022-11-18T02:42:43.031Z,0.60
2022-11-18T02:46:12.340Z,0.60
2022-11-18T02:49:43.019Z,0.63
2022-11-18T02:53:11.313Z,0.70
2022-11-18T02:56:36.783Z,0.60
2022-11-18T03:00:00.215Z,0.60
2022-11-18T03:03:29.318Z,0.63
2022-11-18T03:07:10.849Z,0.60
2022-11-18T03:10:44.850Z,0.60
2022-11-18T03:14:24.722Z,0.60
2022-11-18T03:17:59.445Z,0.60
2022-11-18T03:21:32.995Z,0.50
2022-11-18T03:25:07.082Z,0.57
2022-11-18T03:28:39.861Z,0.60
2022-11-18T03:32:11.489Z,0.60
2022-11-18T03:35:41.792Z,0.60
2022-11-18T03:39:09.804Z,0.60
2022-11-18T03:42:40.759Z,0.60
2022-11-18T03:46:11.771Z,0.70
2022-11-18T03:49:44.579Z,0.60
2022-11-18T03:53:10.182Z,0.60
2022-11-18T03:56:43.210Z,0.60
2022-11-18T04:00:13.918Z,0.60
2022-11-18T04:03:38.686Z,0.60
2022-11-18T04:07:09.982Z,0.60
2022-11-18T04:10:40.391Z,0.60
2022-11-18T04:14:05.679Z,0.60
2022-11-18T04:17:30.793Z,0.60
2022-11-18T04:20:54.809Z,0.70
2022-11-18T04:24:18.536Z,0.60
2022-11-18T04:27:42.006Z,0.67
2022-11-18T04:31:05.746Z,0.60
2022-11-18T04:34:31.321Z,0.63
2022-11-18T04:37:55.084Z,0.60
2022-11-18T04:41:18.679Z,0.60
2022-11-18T04:44:42.341Z,0.70
2022-11-18T04:48:06.787Z,0.60
2022-11-18T04:51:31.589Z,0.60
2022-11-18T04:54:55.045Z,0.60
2022-11-18T04:58:18.607Z,0.60
2022-11-18T05:01:42.253Z,0.50
2022-11-18T05:05:06.929Z,0.60
2022-11-18T05:08:32.735Z,0.60
2022-11-18T05:12:13.839Z,0.60
2022-11-18T05:15:37.278Z,0.60
2022-11-18T05:19:00.750Z,0.60
2022-11-18T05:22:24.333Z,0.50
2022-11-18T05:25:49.494Z,0.50
2022-11-18T05:29:13.565Z,0.60
2022-11-18T05:32:37.233Z,0.50
2022-11-18T05:36:05.218Z,0.50
2022-11-18T05:39:28.678Z,0.50
2022-11-18T05:43:11.191Z,0.50
2022-11-18T05:46:34.739Z,0.50
2022-11-18T05:49:58.214Z,0.50
2022-11-18T05:53:24.466Z,0.50
2022-11-18T05:56:48.503Z,0.60
2022-11-18T06:00:16.554Z,0.60
2022-11-18T06:03:42.851Z,0.60
2022-11-18T06:07:16.795Z,0.50
2022-11-18T06:10:44.363Z,0.50
2022-11-18T06:14:16.233Z,0.50
2022-11-18T06:17:46.526Z,0.50
2022-11-18T06:21:10.323Z,0.50
2022-11-18T06:24:34.462Z,0.50
2022-11-18T06:28:01.786Z,0.50
2022-11-18T06:31:25.381Z,0.50
2022-11-18T06:34:50.227Z,0.50
2022-11-18T06:38:13.885Z,0.50
2022-11-18T06:41:37.433Z,0.60
2022-11-18T06:45:02.120Z,0.60
2022-11-18T06:48:25.976Z,0.70
2022-11-18T06:51:50.927Z,0.60
2022-11-18T06:55:14.574Z,0.50
2022-11-18T06:58:38.111Z,0.60
2022-11-18T07:02:01.624Z,0.70
2022-11-18T07:05:25.218Z,0.60
2022-11-18T07:08:51.571Z,0.60
2022-11-18T07:12:15.153Z,0.60
2022-11-18T07:15:38.701Z,0.60
2022-11-18T07:19:02.184Z,0.77
2022-11-18T07:22:25.936Z,0.60
2022-11-18T07:25:50.848Z,0.70
2022-11-18T07:29:14.491Z,0.90
2022-11-18T07:32:38.087Z,0.60
2022-11-18T07:36:07.369Z,0.70
2022-11-18T07:39:30.895Z,0.60
2022-11-18T07:42:55.778Z,0.60
2022-11-18T07:46:23.143Z,0.70
2022-11-18T07:49:46.769Z,0.60
2022-11-18T07:53:10.513Z,0.70
2022-11-18T07:56:34.053Z,0.60
2022-11-18T07:59:58.868Z,0.80
2022-11-18T08:03:27.772Z,0.70
2022-11-18T08:06:51.408Z,0.90
2022-11-18T08:10:15.107Z,0.90
2022-11-18T08:13:39.146Z,1.07
2022-11-18T08:17:04.114Z,0.70
2022-11-18T08:20:27.877Z,0.90
2022-11-18T08:23:53.229Z,0.80
2022-11-18T08:27:16.775Z,1.07
2022-11-18T08:30:41.078Z,0.60
2022-11-18T08:34:08.526Z,0.70
2022-11-18T08:37:32.017Z,0.77
2022-11-18T08:40:55.734Z,0.70
2022-11-18T08:44:19.362Z,0.70
2022-11-18T08:47:42.919Z,0.70
2022-11-18T08:51:11.860Z,0.60
2022-11-18T08:54:35.369Z,0.63
2022-11-18T08:57:58.838Z,0.70
2022-11-18T09:01:22.678Z,0.80
2022-11-18T09:04:48.150Z,0.80
2022-11-18T09:08:13.089Z,0.80
2022-11-18T09:11:40.027Z,0.90
2022-11-18T09:15:13.310Z,0.70
2022-11-18T09:18:37.647Z,0.57
2022-11-18T09:22:01.555Z,0.70
2022-11-18T09:25:26.637Z,0.87
2022-11-18T09:28:50.921Z,0.70
2022-11-18T09:32:16.432Z,0.73
2022-11-18T09:35:43.628Z,0.50
2022-11-18T09:39:07.165Z,0.70
2022-11-18T09:42:56.020Z,0.80
2022-11-18T09:46:31.812Z,0.70
2022-11-18T09:49:57.920Z,0.70
2022-11-18T09:53:23.540Z,0.50
2022-11-18T09:56:48.672Z,0.70
2022-11-18T10:00:19.869Z,0.70
2022-11-18T10:03:43.751Z,0.60
2022-11-18T10:07:17.029Z,0.60
2022-11-18T10:10:50.085Z,0.60
2022-11-18T10:14:30.525Z,0.60
2022-11-18T10:18:07.579Z,0.63
2022-11-18T10:21:48.207Z,0.60
2022-11-18T10:25:15.175Z,0.60
2022-11-18T10:28:39.616Z,0.70
2022-11-18T10:32:05.505Z,0.60
2022-11-18T10:35:34.903Z,0.70
2022-11-18T10:39:19.387Z,0.60
2022-11-18T10:42:45.970Z,0.70
2022-11-18T10:46:19.574Z,0.70
2022-11-18T10:49:43.745Z,0.87
2022-11-18T10:53:31.035Z,0.90
2022-11-18T10:56:59.010Z,0.93
2022-11-18T11:00:38.990Z,0.80
2022-11-18T11:04:13.229Z,0.93
2022-11-18T11:07:38.783Z,0.90
2022-11-18T11:11:04.365Z,1.10
2022-11-18T11:14:32.024Z,0.90
2022-11-18T11:18:14.152Z,1.10
2022-11-18T11:21:38.045Z,0.90
2022-11-18T11:25:01.966Z,0.93
2022-11-18T11:28:36.603Z,1.20
2022-11-18T11:32:12.043Z,1.10
2022-11-18T11:35:43.966Z,1.10
2022-11-18T11:39:35.249Z,1.00
2022-11-18T11:43:21.655Z,1.13
2022-11-18T11:47:13.462Z,0.83
2022-11-18T11:51:03.533Z,1.00
2022-11-18T11:54:53.499Z,1.10
2022-11-18T11:58:30.369Z,0.90
2022-11-18T12:02:25.709Z,0.90
2022-11-18T12:05:49.717Z,1.10
2022-11-18T12:09:19.813Z,0.90
2022-11-18T12:12:57.316Z,1.00
2022-11-18T12:16:28.340Z,1.10
2022-11-18T12:19:53.786Z,0.93
2022-11-18T12:23:20.351Z,0.70
2022-11-18T12:26:46.371Z,0.80
2022-11-18T12:30:20.128Z,0.80
2022-11-18T12:33:45.401Z,1.10
2022-11-18T12:37:55.163Z,1.10
2022-11-18T12:42:13.488Z,1.07
2022-11-18T12:45:56.961Z,1.20
2022-11-18T12:50:14.953Z,0.90
2022-11-18T12:53:41.069Z,1.00
2022-11-18T12:57:19.507Z,1.00
2022-11-18T13:00:55.436Z,1.23
2022-11-18T13:04:21.001Z,0.93
2022-11-18T13:08:06.018Z,1.00
2022-11-18T13:11:47.081Z,1.00
2022-11-18T13:15:32.037Z,1.10
2022-11-18T13:18:56.345Z,0.97
2022-11-18T13:22:38.546Z,1.10
2022-11-18T13:26:06.624Z,1.10
2022-11-18T13:29:43.199Z,1.33
2022-11-18T13:33:12.902Z,1.30
2022-11-18T13:36:44.714Z,1.53
2022-11-18T13:40:22.867Z,1.03
2022-11-18T13:43:51.424Z,1.37
2022-11-18T13:47:32.432Z,1.20
2022-11-18T13:51:01.249Z,1.40
2022-11-18T13:54:28.116Z,1.20
2022-11-18T13:57:56.110Z,1.17
2022-11-18T14:01:22.765Z,1.20
2022-11-18T14:04:54.339Z,1.40
2022-11-18T14:08:28.623Z,1.70
2022-11-18T14:12:02.804Z,1.30
2022-11-18T14:15:42.168Z,1.10
2022-11-18T14:19:08.855Z,1.10
2022-11-18T14:22:33.033Z,1.20
2022-11-18T14:26:00.850Z,1.20
2022-11-18T14:29:24.846Z,1.20
2022-11-18T14:33:13.246Z,1.10
2022-11-18T14:36:37.183Z,1.60
2022-11-18T14:40:01.095Z,1.37
2022-11-18T14:43:26.928Z,1.47
2022-11-18T14:46:53.522Z,1.30
2022-11-18T14:50:18.050Z,1.40
2022-11-18T14:53:41.752Z,1.40
2022-11-18T14:57:06.784Z,1.00
2022-11-18T15:00:31.895Z,1.10
2022-11-18T15:03:56.370Z,1.17
2022-11-18T15:07:23.912Z,1.10
2022-11-18T15:10:48.199Z,1.10
2022-11-18T15:14:12.326Z,1.30
2022-11-18T15:17:37.463Z,1.37
2022-11-18T15:21:01.274Z,1.30
2022-11-18T15:24:25.189Z,1.60
2022-11-18T15:27:49.065Z,1.30
2022-11-18T15:31:12.657Z,1.13
2022-11-18T15:34:37.918Z,1.40
2022-11-18T15:38:01.825Z,1.30
2022-11-18T15:41:27.994Z,1.30
2022-11-18T15:44:51.809Z,1.33
2022-11-18T15:48:15.614Z,1.33
2022-11-18T15:51:40.999Z,1.27
2022-11-18T15:55:08.072Z,1.27
2022-11-18T15:58:35.869Z,0.80
2022-11-18T16:02:00.684Z,1.43
2022-11-18T16:05:25.174Z,1.47
2022-11-18T16:08:55.881Z,1.23
2022-11-18T16:12:40.684Z,1.00
2022-11-18T16:16:04.828Z,1.00
2022-11-18T16:19:33.317Z,1.00
2022-11-18T16:22:57.692Z,1.60
2022-11-18T16:26:23.177Z,1.90
2022-11-18T16:29:46.969Z,1.50
2022-11-18T16:33:10.832Z,1.53
2022-11-18T16:36:35.364Z,1.40
2022-11-18T16:39:59.239Z,1.80
2022-11-18T16:43:24.756Z,1.37
2022-11-18T16:46:50.806Z,1.33
2022-11-18T16:50:14.708Z,1.33
2022-11-18T16:53:38.629Z,1.13
2022-11-18T16:57:02.951Z,1.10
2022-11-18T17:00:59.883Z,1.40
2022-11-18T17:04:12.784Z,1.03
2022-11-18T17:07:38.747Z,3.77
2022-11-18T17:11:07.461Z,3.50
2022-11-18T17:14:31.961Z,2.43
2022-11-18T17:17:57.886Z,1.80
2022-11-18T17:21:22.026Z,1.40
2022-11-18T17:24:45.833Z,1.30
2022-11-18T17:28:09.785Z,1.30
2022-11-18T17:31:34.535Z,4.10
2022-11-18T17:34:59.398Z,3.17
2022-11-18T17:38:23.217Z,2.87
2022-11-18T17:42:04.408Z,1.80
2022-11-18T17:45:27.947Z,1.30
2022-11-18T17:48:54.777Z,1.37
2022-11-18T17:52:20.294Z,1.27
2022-11-18T17:55:44.613Z,1.20
2022-11-18T17:59:08.634Z,1.50
2022-11-18T18:02:32.435Z,2.33
2022-11-18T18:06:03.008Z,1.43
2022-11-18T18:09:30.905Z,1.50
2022-11-18T18:13:12.702Z,1.60
2022-11-18T18:16:36.629Z,1.20
2022-11-18T18:20:00.461Z,1.40
2022-11-18T18:23:24.412Z,1.30
2022-11-18T18:26:49.982Z,1.20
2022-11-18T18:30:15.377Z,1.23
2022-11-18T18:33:40.875Z,1.20
2022-11-18T18:37:04.441Z,1.27
2022-11-18T18:40:28.072Z,1.23
2022-11-18T18:43:53.381Z,1.50
2022-11-18T18:47:17.248Z,1.20
2022-11-18T18:50:41.152Z,1.20
2022-11-18T18:54:05.666Z,1.30
2022-11-18T18:57:30.673Z,1.30
2022-11-18T19:00:58.378Z,1.60
2022-11-18T19:04:22.474Z,1.50
2022-11-18T19:07:46.153Z,1.00
2022-11-18T19:11:30.225Z,1.03
2022-11-18T19:14:54.301Z,0.87
2022-11-18T19:18:23.371Z,0.83
2022-11-18T19:21:49.961Z,0.90
2022-11-18T19:25:13.903Z,1.00
2022-11-18T19:28:37.395Z,0.90
2022-11-18T19:32:01.327Z,1.10
2022-11-18T19:38:55.670Z,1.17
2022-11-18T19:42:19.673Z,0.80
2022-11-18T19:45:52.123Z,0.90
2022-11-18T19:49:16.223Z,0.93
2022-11-18T19:52:41.676Z,1.10
2022-11-18T19:56:08.118Z,0.93
2022-11-18T19:59:32.193Z,1.03
2022-11-18T20:02:56.018Z,1.00
2022-11-18T20:06:22.302Z,1.20
2022-11-18T20:09:47.143Z,1.60
2022-11-18T20:13:10.918Z,1.27
2022-11-18T20:16:34.786Z,1.10
2022-11-18T20:19:58.659Z,1.07
2022-11-18T20:23:22.495Z,1.00
2022-11-18T20:26:48.642Z,1.10
2022-11-18T20:30:13.638Z,1.13
2022-11-18T20:33:39.672Z,1.23
2022-11-18T20:37:03.606Z,1.40
2022-11-18T20:40:28.583Z,1.00
2022-11-18T20:43:54.060Z,0.90
2022-11-18T20:47:17.893Z,0.90
2022-11-18T20:50:41.838Z,0.70
2022-11-18T20:54:09.175Z,0.90
2022-11-18T20:57:33.063Z,0.90
2022-11-18T21:01:01.751Z,0.90
2022-11-18T21:04:25.929Z,0.90
2022-11-18T21:07:50.477Z,1.10
2022-11-18T21:11:15.663Z,0.80
2022-11-18T21:14:39.578Z,0.97
2022-11-18T21:18:05.261Z,0.90
2022-11-18T21:21:43.036Z,0.90
2022-11-18T21:25:07.558Z,0.80
2022-11-18T21:28:31.408Z,0.87
2022-11-18T21:31:55.648Z,0.87
2022-11-18T21:35:20.875Z,1.00
2022-11-18T21:38:44.913Z,0.90
2022-11-18T21:42:08.793Z,1.10
2022-11-18T21:45:33.124Z,1.00
2022-11-18T21:49:00.156Z,0.97
2022-11-18T21:52:25.793Z,1.00
2022-11-18T21:55:49.570Z,0.90
2022-11-18T21:59:13.532Z,1.00
2022-11-18T22:02:37.334Z,1.00
2022-11-18T22:06:02.018Z,1.00
2022-11-18T22:09:32.875Z,0.90
2022-11-18T22:12:59.867Z,0.97
2022-11-18T22:16:25.273Z,1.20
2022-11-18T22:19:49.120Z,0.83
2022-11-18T22:23:14.448Z,1.10
2022-11-18T22:26:39.605Z,0.90
2022-11-18T22:30:03.390Z,1.00
2022-11-18T22:33:27.461Z,0.93
2022-11-18T22:36:52.372Z,1.37
2022-11-18T22:40:16.542Z,1.07
2022-11-18T22:43:42.058Z,1.10
2022-11-18T22:47:06.353Z,0.90
2022-11-18T22:50:30.658Z,1.00
2022-11-18T22:54:16.005Z,0.90
2022-11-18T22:57:39.041Z,1.03
2022-11-18T23:01:07.890Z,1.13
2022-11-18T23:04:31.805Z,0.93
2022-11-18T23:07:55.758Z,0.73
2022-11-18T23:11:35.568Z,0.90
2022-11-18T23:14:59.213Z,1.00
2022-11-18T23:18:24.787Z,1.07
2022-11-18T23:21:48.687Z,1.10
2022-11-18T23:25:12.536Z,1.37
2022-11-18T23:28:37.551Z,1.70
2022-11-18T23:32:01.421Z,1.20
2022-11-18T23:35:26.766Z,1.30
2022-11-18T23:38:50.390Z,1.60
2022-11-18T23:42:14.321Z,1.40
2022-11-18T23:45:37.929Z,1.10
2022-11-18T23:49:01.985Z,1.20
2022-11-18T23:52:27.316Z,0.90
2022-11-18T23:55:50.956Z,1.30
2022-11-18T23:59:14.812Z,1.13
